Time;durP1;ratioP1;P1;durP2;ratioP2;P2;SDS_P1;SDS_P2;PMS_P1;PMS_P2;Temp;Humidity;BMP_temperature;BMP_pressure;BME280_temperature;BME280_humidity;BME280_pressure;Samples;Min_cycle;Max_cycle;Signal;HPM_P1;HPM_P2
2021/12/16 00:03:30;;;;;;;16.05;14.55;;;;;;;18.62;43.03;102632.81;5013545;28;20411;-75
2021/12/16 00:08:34;;;;;;;16.25;14.55;;;;;;;18.64;42.90;102632.75;5013554;28;20104;-75
2021/12/16 00:35:42;;;;;;;18.15;15.35;;;;;;;18.65;42.13;102627.28;5054674;28;20052;-75
2021/12/16 00:38:11;;;;;;;16.50;14.95;;;;;;;18.66;42.00;102629.00;5053009;28;20053;-74
2021/12/16 00:40:41;;;;;;;15.93;14.05;;;;;;;18.66;41.85;102622.78;5053075;28;20405;-74
2021/12/16 00:43:26;;;;;;;16.52;14.93;;;;;;;18.66;41.96;102620.97;5052865;28;20060;-74
2021/12/16 00:46:13;;;;;;;16.33;14.65;;;;;;;18.67;41.47;102621.81;5052720;28;20055;-75
2021/12/16 00:54:12;;;;;;;14.93;13.52;;;;;;;18.67;41.72;102620.00;5052791;28;20045;-75
2021/12/16 00:56:54;;;;;;;15.48;13.98;;;;;;;18.68;41.87;102615.53;5052346;28;20060;-74
2021/12/16 00:59:23;;;;;;;16.45;14.75;;;;;;;18.67;41.75;102628.06;5053895;28;20382;-75
2021/12/16 01:02:16;;;;;;;15.77;14.18;;;;;;;18.67;41.69;102628.06;5052841;28;20503;-74
2021/12/16 01:51:20;;;;;;;13.95;12.57;;;;;;;18.62;41.81;102640.84;5034591;28;20055;-75
2021/12/16 01:56:55;;;;;;;16.77;15.05;;;;;;;18.62;41.67;102653.41;5034134;28;20060;-74
2021/12/16 01:59:26;;;;;;;16.30;13.77;;;;;;;18.62;41.16;102648.03;5033997;28;20164;-75
2021/12/16 02:02:01;;;;;;;16.17;14.52;;;;;;;18.63;41.29;102645.25;5052478;28;20063;-75
2021/12/16 02:04:39;;;;;;;15.63;13.95;;;;;;;18.62;41.39;102643.53;5052248;28;20052;-75
2021/12/16 02:07:24;;;;;;;16.58;14.88;;;;;;;18.63;41.24;102641.72;5052947;28;20056;-75
2021/12/16 02:09:56;;;;;;;16.15;14.55;;;;;;;18.62;41.17;102640.84;5051665;28;20057;-75
2021/12/16 02:12:52;;;;;;;15.20;13.70;;;;;;;18.62;41.29;102635.50;5085142;28;20095;-75
2021/12/16 02:29:43;;;;;;;14.50;13.10;;;;;;;18.62;41.50;102623.91;5033910;28;20056;-75
2021/12/16 02:37:37;;;;;;;14.40;12.15;;;;;;;18.60;41.33;102617.78;5035901;28;20057;-74
2021/12/16 02:40:08;;;;;;;13.55;12.38;;;;;;;18.58;41.36;102617.81;5054282;28;20156;-75
2021/12/16 02:42:50;;;;;;;14.07;12.77;;;;;;;18.60;41.53;102628.50;5037273;28;20059;-75
2021/12/16 02:50:52;;;;;;;14.00;12.57;;;;;;;18.58;41.43;102628.56;5037162;28;20045;-75
2021/12/16 02:53:19;;;;;;;13.68;12.38;;;;;;;18.57;41.35;102618.78;5053951;28;20520;-75
2021/12/16 02:55:47;;;;;;;15.15;13.63;;;;;;;18.58;41.54;102619.66;5054469;28;20542;-75
2021/12/16 02:58:16;;;;;;;14.93;13.48;;;;;;;18.57;41.45;102610.75;5054377;28;20057;-75
2021/12/16 03:00:47;;;;;;;13.40;12.15;;;;;;;18.59;41.34;102610.66;5037117;28;20057;-75
2021/12/16 03:03:16;;;;;;;13.05;11.82;;;;;;;18.57;41.31;102608.06;5037333;28;20076;-75
2021/12/16 03:05:43;;;;;;;14.45;12.43;;;;;;;18.57;41.46;102600.00;5054587;28;20053;-75
2021/12/16 03:08:11;;;;;;;13.45;12.15;;;;;;;18.57;41.54;102609.88;5054705;28;20064;-75
2021/12/16 03:13:36;;;;;;;13.27;11.93;;;;;;;18.57;41.46;102608.06;5035790;28;20509;-75
2021/12/16 03:16:17;;;;;;;13.00;11.73;;;;;;;18.57;41.49;102607.19;5054992;28;20053;-75
2021/12/16 03:19:03;;;;;;;12.82;11.57;;;;;;;18.57;41.50;102609.88;5056234;28;20056;-75
2021/12/16 03:21:36;;;;;;;12.93;11.50;;;;;;;18.57;41.33;102605.38;5056030;28;20048;-75
2021/12/16 03:24:39;;;;;;;13.20;11.93;;;;;;;18.57;41.40;102609.88;5054787;28;20060;-75
2021/12/16 03:38:22;;;;;;;12.65;11.35;;;;;;;18.53;41.45;102596.63;5013993;28;20053;-75
2021/12/16 03:40:51;;;;;;;11.48;10.40;;;;;;;18.54;41.58;102593.00;5014029;28;20066;-75
2021/12/16 03:43:20;;;;;;;12.32;11.13;;;;;;;18.54;41.34;102592.13;4996454;28;20426;-75
2021/12/16 03:49:01;;;;;;;12.93;11.70;;;;;;;18.53;41.37;102591.25;5012626;28;20070;-74
2021/12/16 03:51:54;;;;;;;11.93;10.80;;;;;;;18.52;41.16;102581.50;4996590;28;20422;-75
2021/12/16 03:54:26;;;;;;;11.82;10.73;;;;;;;18.52;41.25;102589.53;4997265;28;20078;-75
2021/12/16 03:57:05;;;;;;;12.15;10.95;;;;;;;18.51;41.29;102581.56;5012735;28;20065;-74
2021/12/16 03:59:37;;;;;;;12.68;11.48;;;;;;;18.52;41.23;102580.63;5012873;28;20057;-75
2021/12/16 04:02:33;;;;;;;11.15;10.15;;;;;;;18.51;41.32;102584.25;4935921;29;20051;-74
2021/12/16 04:05:04;;;;;;;11.57;10.40;;;;;;;18.51;41.37;102581.56;4919946;29;20071;-75
2021/12/16 04:07:37;;;;;;;11.30;10.20;;;;;;;18.50;41.24;102585.19;4967789;28;20324;-75
2021/12/16 04:10:34;;;;;;;10.90;9.88;;;;;;;18.50;41.24;102577.16;4976722;28;20054;-75
2021/12/16 04:13:08;;;;;;;11.18;10.13;;;;;;;18.50;41.34;102571.78;4993156;28;20062;-75
2021/12/16 04:15:36;;;;;;;11.43;10.35;;;;;;;18.49;41.26;102564.69;4977232;28;20061;-75
2021/12/16 04:18:03;;;;;;;11.05;9.95;;;;;;;18.49;41.10;102568.25;5008920;28;20050;-75
2021/12/16 04:20:32;;;;;;;11.30;10.20;;;;;;;18.48;41.15;102562.97;4977264;28;20058;-75
2021/12/16 04:23:00;;;;;;;11.00;9.95;;;;;;;18.47;41.10;102567.47;4976939;28;20065;-75
2021/12/16 04:25:35;;;;;;;11.70;10.60;;;;;;;18.47;41.16;102558.53;4993098;28;20057;-75
2021/12/16 04:28:13;;;;;;;10.85;9.85;;;;;;;18.47;41.17;102564.78;4992584;28;20438;-75
2021/12/16 04:30:43;;;;;;;12.10;10.75;;;;;;;18.47;41.32;102555.84;4993317;28;20042;-75
2021/12/16 04:33:12;;;;;;;12.02;10.93;;;;;;;18.47;41.21;102564.78;4992550;28;20057;-75
2021/12/16 04:35:40;;;;;;;11.48;10.35;;;;;;;18.46;41.39;102557.69;4976690;28;20058;-75
2021/12/16 04:38:10;;;;;;;11.88;10.77;;;;;;;18.46;41.30;102562.19;4993593;28;20529;-75
2021/12/16 04:40:39;;;;;;;11.32;10.20;;;;;;;18.47;41.32;102566.59;5074870;28;20049;-75
2021/12/16 04:43:09;;;;;;;11.32;10.23;;;;;;;18.46;41.16;102562.19;5052464;28;20523;-75
2021/12/16 04:45:53;;;;;;;10.93;9.82;;;;;;;18.46;41.29;102559.50;5054253;28;20037;-75
2021/12/16 04:48:20;;;;;;;10.25;9.23;;;;;;;18.46;41.23;102560.34;5052910;28;20522;-75
2021/12/16 04:50:49;;;;;;;10.90;9.77;;;;;;;18.46;41.14;102556.81;5053219;28;20048;-75
2021/12/16 04:53:18;;;;;;;10.63;9.52;;;;;;;18.45;41.14;102555.94;5052997;28;20052;-75
2021/12/16 04:55:50;;;;;;;10.38;9.32;;;;;;;18.45;41.19;102552.41;5052639;28;20056;-75
2021/12/16 04:58:17;;;;;;;10.20;9.25;;;;;;;18.45;41.19;102555.94;5052757;28;20072;-75
2021/12/16 05:00:45;;;;;;;11.00;9.90;;;;;;;18.45;41.11;102552.41;5051515;28;20068;-74
2021/12/16 05:03:25;;;;;;;10.52;9.43;;;;;;;18.45;40.95;102555.94;5052635;28;20075;-75
2021/12/16 05:05:54;;;;;;;10.48;9.52;;;;;;;18.44;41.11;102554.22;5052529;28;20056;-74
2021/12/16 05:08:22;;;;;;;10.27;9.30;;;;;;;18.44;41.18;102550.69;5053551;28;20412;-75
2021/12/16 05:10:57;;;;;;;10.07;8.95;;;;;;;18.45;41.23;102549.72;5052195;28;20052;-74
2021/12/16 05:13:27;;;;;;;10.77;9.38;;;;;;;18.43;40.87;102541.78;5052458;28;20049;-74
2021/12/16 05:16:02;;;;;;;10.05;9.05;;;;;;;18.43;41.13;102552.50;5052909;28;20049;-74
2021/12/16 05:18:36;;;;;;;9.68;8.77;;;;;;;18.42;41.01;102555.25;5052384;28;20044;-74
2021/12/16 05:21:14;;;;;;;9.60;8.60;;;;;;;18.43;41.04;102556.97;5052369;28;20044;-74
2021/12/16 05:26:28;;;;;;;9.38;8.25;;;;;;;18.42;41.02;102557.94;5085708;28;20404;-75
2021/12/16 05:29:08;;;;;;;9.73;8.82;;;;;;;18.42;41.01;102557.94;5052065;28;20401;-75
2021/12/16 05:31:38;;;;;;;10.02;9.02;;;;;;;18.40;40.81;102558.03;5052363;28;20064;-75
2021/12/16 05:34:08;;;;;;;8.80;7.90;;;;;;;18.40;41.02;102563.38;5052322;28;20059;-75
2021/12/16 05:36:39;;;;;;;9.77;8.70;;;;;;;18.39;40.70;102572.41;5051972;28;20063;-75
2021/12/16 05:39:08;;;;;;;9.45;8.55;;;;;;;18.39;40.95;102566.13;5051325;28;20053;-75
2021/12/16 05:41:44;;;;;;;9.48;8.57;;;;;;;18.40;40.75;102578.63;5051710;28;20057;-75
2021/12/16 05:44:12;;;;;;;8.77;7.93;;;;;;;18.39;41.04;102592.94;5051664;28;20061;-75
2021/12/16 05:46:40;;;;;;;9.65;8.65;;;;;;;18.39;40.91;102587.59;5051573;28;20057;-75
2021/12/16 05:49:12;;;;;;;9.10;8.20;;;;;;;18.38;40.96;102580.50;5051932;28;20052;-75
2021/12/16 05:51:48;;;;;;;10.35;8.25;;;;;;;18.39;40.76;102571.50;5052027;28;20412;-75
2021/12/16 05:54:20;;;;;;;9.23;8.32;;;;;;;18.37;41.07;102565.38;5052140;28;20071;-75
2021/12/16 05:57:10;;;;;;;9.85;8.85;;;;;;;18.36;40.57;102564.50;5048108;28;20068;-75
2021/12/16 05:59:39;;;;;;;8.90;8.02;;;;;;;18.37;40.82;102576.09;5051602;28;20076;-75
2021/12/16 06:02:07;;;;;;;10.23;7.78;;;;;;;18.36;40.74;102577.06;5051720;28;20064;-75
2021/12/16 06:04:36;;;;;;;9.68;8.77;;;;;;;18.35;40.79;102578.88;5052156;28;20392;-76
2021/12/16 06:07:12;;;;;;;10.63;7.78;;;;;;;18.35;40.63;102581.56;5051482;28;20053;-75
2021/12/16 06:09:43;;;;;;;9.20;7.80;;;;;;;18.35;40.62;102586.03;5051642;28;20049;-76
2021/12/16 06:12:11;;;;;;;8.52;7.72;;;;;;;18.35;40.49;102591.38;5087412;28;20063;-75
2021/12/16 06:28:18;;;;;;;8.95;7.68;;;;;;;18.32;40.63;102595.13;5056641;28;20045;-75
2021/12/16 06:30:46;;;;;;;8.82;7.57;;;;;;;18.32;40.55;102587.06;5089002;28;20040;-75
2021/12/16 06:33:17;;;;;;;7.75;6.85;;;;;;;18.31;40.61;102588.03;5056647;28;20055;-75
2021/12/16 06:35:45;;;;;;;8.40;7.60;;;;;;;18.32;40.49;102591.56;5057112;28;20386;-75
2021/12/16 06:38:13;;;;;;;10.63;7.85;;;;;;;18.31;40.50;102592.50;5054951;28;20064;-75
2021/12/16 06:40:56;;;;;;;9.18;7.95;;;;;;;18.29;40.66;102596.13;5055031;28;20068;-75
2021/12/16 06:43:51;;;;;;;9.77;8.35;;;;;;;18.30;40.76;102597.00;5037203;28;20061;-75
2021/12/16 06:46:21;;;;;;;7.90;7.15;;;;;;;18.29;40.62;102598.81;5054898;28;20493;-75
2021/12/16 06:48:56;;;;;;;8.98;8.07;;;;;;;18.28;40.74;102597.09;5056228;28;20412;-76
2021/12/16 06:51:35;;;;;;;7.40;6.70;;;;;;;18.28;40.76;102586.38;5056442;28;20184;-75
2021/12/16 06:54:13;;;;;;;9.02;7.88;;;;;;;18.28;40.57;102580.16;5056833;28;20089;-75
2021/12/16 06:56:52;;;;;;;7.90;7.05;;;;;;;18.28;40.62;102580.16;5056307;28;20112;-75
2021/12/16 06:59:27;;;;;;;8.23;7.45;;;;;;;18.27;40.48;102598.06;5056259;28;20047;-75
2021/12/16 07:04:45;;;;;;;7.93;7.13;;;;;;;18.27;40.51;102590.00;5056581;28;20045;-75
2021/12/16 07:07:14;;;;;;;8.48;7.68;;;;;;;18.26;40.47;102580.22;5055224;28;20045;-75
2021/12/16 07:09:42;;;;;;;7.68;6.93;;;;;;;18.26;40.23;102585.56;5088306;28;20045;-76
2021/12/16 07:12:10;;;;;;;7.70;7.00;;;;;;;18.26;40.53;102585.56;5056306;28;20052;-75
2021/12/16 07:14:40;;;;;;;7.65;6.93;;;;;;;18.26;40.32;102590.94;5055673;28;20408;-75
2021/12/16 07:17:14;;;;;;;8.13;7.38;;;;;;;18.25;40.40;102586.53;5056203;28;20041;-75
2021/12/16 07:19:44;;;;;;;8.38;7.22;;;;;;;18.26;40.73;102590.06;5056168;28;20053;-75
2021/12/16 07:22:12;;;;;;;7.68;6.88;;;;;;;18.27;40.69;102594.47;5055040;28;20045;-75
2021/12/16 07:24:40;;;;;;;9.82;7.45;;;;;;;18.26;40.64;102596.28;5054536;28;20049;-76
2021/12/16 07:27:08;;;;;;;9.70;7.88;;;;;;;18.25;40.49;102589.22;5055785;28;20472;-76
2021/12/16 07:29:37;;;;;;;10.65;7.30;;;;;;;18.25;41.53;102591.88;5054469;28;20036;-76
2021/12/16 07:32:05;;;;;;;7.68;6.93;;;;;;;18.25;41.40;102585.66;5055721;28;20053;-76
2021/12/16 07:34:33;;;;;;;8.23;7.07;;;;;;;18.25;41.36;102585.66;5055748;28;20397;-75
2021/12/16 07:37:04;;;;;;;8.77;6.90;;;;;;;18.26;41.14;102588.25;5054010;28;20436;-75
2021/12/16 07:39:38;;;;;;;8.10;7.25;;;;;;;18.25;41.04;102591.03;5055400;28;20044;-75
2021/12/16 07:42:08;;;;;;;7.30;6.60;;;;;;;18.25;40.99;102596.38;5055249;28;20064;-76
2021/12/16 07:44:36;;;;;;;11.60;8.38;;;;;;;18.24;40.93;102591.97;5055287;28;20044;-75
2021/12/16 07:47:08;;;;;;;12.35;9.57;;;;;;;18.24;40.93;102603.56;5055272;28;20040;-76
2021/12/16 07:49:41;;;;;;;12.45;8.80;;;;;;;18.22;40.86;102596.53;5055501;28;20056;-76
2021/12/16 07:52:14;;;;;;;12.82;8.45;;;;;;;18.21;40.78;102603.72;5056226;28;20381;-75
2021/12/16 07:54:41;;;;;;;12.07;10.00;;;;;;;18.20;40.39;102599.31;5054465;28;20049;-75
2021/12/16 07:57:09;;;;;;;14.82;11.20;;;;;;;18.19;40.17;102594.91;5053771;28;20298;-75
2021/12/16 07:59:37;;;;;;;11.68;10.48;;;;;;;18.18;40.35;102590.47;5054739;28;20058;-75
2021/12/16 08:02:08;;;;;;;16.85;11.43;;;;;;;18.16;40.22;102592.38;5054930;28;20049;-75
2021/12/16 08:04:41;;;;;;;13.50;11.82;;;;;;;18.16;39.57;102599.56;5054912;28;20505;-76
2021/12/16 08:07:10;;;;;;;;;;;;;;;18.14;39.69;102591.59;5055144;28;20370;-75
2021/12/16 08:09:41;;;;;;;15.43;12.68;;;;;;;18.14;39.54;102582.69;5054589;28;19928;-76
2021/12/16 08:12:12;;;;;;;15.88;12.48;;;;;;;18.13;39.25;102587.19;5054684;28;20481;-76
2021/12/16 08:14:42;;;;;;;16.80;14.60;;;;;;;18.12;38.79;102596.19;5054647;28;20045;-75
2021/12/16 08:17:10;;;;;;;15.48;13.90;;;;;;;18.12;39.27;102606.03;5052867;28;20045;-75
2021/12/16 08:19:38;;;;;;;16.63;13.82;;;;;;;18.12;39.31;102604.22;5054391;28;20048;-75
2021/12/16 08:22:06;;;;;;;16.67;13.45;;;;;;;18.11;38.85;102605.19;5054345;28;20045;-75
2021/12/16 08:24:34;;;;;;;17.58;14.85;;;;;;;18.10;38.39;102603.41;5053200;28;20056;-75
2021/12/16 08:27:08;;;;;;;16.98;15.32;;;;;;;18.10;38.22;102602.56;5053094;28;20044;-75
2021/12/16 08:29:36;;;;;;;16.42;13.90;;;;;;;18.11;38.46;102609.63;5054166;28;20059;-75
2021/12/16 08:32:04;;;;;;;15.95;14.30;;;;;;;18.09;38.57;102601.69;5054370;28;20052;-75
2021/12/16 08:34:34;;;;;;;14.98;13.13;;;;;;;18.09;38.93;102600.81;5054670;28;20047;-75
2021/12/16 08:37:02;;;;;;;14.77;13.27;;;;;;;18.10;39.26;102597.19;5054264;28;20045;-75
2021/12/16 08:39:30;;;;;;;15.07;12.38;;;;;;;18.10;39.63;102598.06;5052476;28;20052;-75
2021/12/16 08:41:59;;;;;;;16.90;12.60;;;;;;;18.12;39.68;102595.31;5054057;28;20053;-75
2021/12/16 08:44:27;;;;;;;12.32;11.02;;;;;;;18.14;39.83;102605.00;5053909;28;20519;-76
2021/12/16 08:47:03;;;;;;;13.15;10.80;;;;;;;18.16;40.22;102602.25;5053802;28;20052;-75
2021/12/16 08:49:30;;;;;;;11.80;10.25;;;;;;;18.15;40.08;102597.81;5054193;28;20500;-75
2021/12/16 08:52:04;;;;;;;12.93;10.40;;;;;;;18.16;40.38;102600.44;5053649;28;20041;-75
2021/12/16 08:54:33;;;;;;;10.77;9.63;;;;;;;18.16;40.43;102587.03;5054596;28;20049;-75
2021/12/16 08:57:00;;;;;;;11.38;8.68;;;;;;;18.18;40.37;102585.13;5053748;28;20088;-75
2021/12/16 08:59:28;;;;;;;11.43;9.38;;;;;;;18.19;40.52;102588.66;5054058;28;20408;-75
2021/12/16 09:01:58;;;;;;;10.48;8.48;;;;;;;18.19;40.50;102596.69;5052076;28;20064;-75
2021/12/16 09:04:27;;;;;;;10.52;8.32;;;;;;;18.19;40.50;102594.00;5053949;28;20361;-75
2021/12/16 09:07:00;;;;;;;10.57;8.60;;;;;;;18.20;40.58;102588.59;5053263;28;20477;-75
2021/12/16 09:09:32;;;;;;;9.55;8.55;;;;;;;18.20;40.53;102585.91;5053752;28;20056;-76
2021/12/16 09:14:36;;;;;;;9.70;8.77;;;;;;;18.22;40.86;102586.69;5053535;28;20049;-75
2021/12/16 09:17:09;;;;;;;14.35;9.23;;;;;;;18.22;40.77;102592.03;5051062;28;20423;-75
2021/12/16 09:19:40;;;;;;;;;;;;;;;18.22;40.84;102591.19;5053686;28;20056;-75
2021/12/16 09:22:10;;;;;;;10.98;8.63;;;;;;;18.22;40.74;102591.19;5053405;28;19921;-75
2021/12/16 09:24:38;;;;;;;13.63;9.00;;;;;;;18.22;40.77;102594.72;5051652;28;20511;-75
2021/12/16 09:27:05;;;;;;;11.68;9.75;;;;;;;18.22;40.65;102600.09;5052007;28;20041;-75
2021/12/16 09:29:33;;;;;;;12.10;9.57;;;;;;;18.23;40.74;102592.91;5051935;28;20492;-76
2021/12/16 09:32:03;;;;;;;8.38;7.47;;;;;;;18.22;40.78;102597.41;5053117;28;20071;-75
2021/12/16 09:34:36;;;;;;;12.05;8.73;;;;;;;18.22;40.81;102592.03;5053211;28;20059;-75
2021/12/16 09:37:04;;;;;;;11.65;8.52;;;;;;;18.22;40.76;102600.09;5053017;28;20071;-75
2021/12/16 09:39:32;;;;;;;10.10;8.82;;;;;;;18.23;40.79;102598.28;5053139;28;20385;-75
2021/12/16 09:42:01;;;;;;;9.48;8.52;;;;;;;18.23;40.94;102595.59;5052650;28;20406;-76
2021/12/16 09:44:29;;;;;;;10.68;8.25;;;;;;;18.23;40.90;102592.91;5051758;28;20056;-75
2021/12/16 09:46:59;;;;;;;12.40;9.05;;;;;;;18.23;40.73;102592.91;5051136;28;20493;-76
2021/12/16 09:49:27;;;;;;;9.40;8.40;;;;;;;18.23;40.86;102599.16;5052760;28;20048;-76
2021/12/16 09:51:56;;;;;;;10.90;8.32;;;;;;;18.23;40.97;102588.44;5052748;28;20049;-76
2021/12/16 09:54:29;;;;;;;10.43;8.63;;;;;;;18.23;41.00;102593.81;5052873;28;20045;-75
2021/12/16 09:56:57;;;;;;;9.95;8.70;;;;;;;18.23;41.05;102582.19;5051353;28;20064;-76
2021/12/16 09:59:29;;;;;;;12.63;9.68;;;;;;;18.24;40.96;102578.56;5053052;28;20045;-75
2021/12/16 10:02:01;;;;;;;10.60;8.57;;;;;;;18.23;41.06;102580.41;5052961;28;20049;-79
2021/12/16 10:04:33;;;;;;;12.55;9.50;;;;;;;18.25;41.13;102580.31;5052851;28;20052;-81
2021/12/16 10:07:11;;;;;;;10.93;8.07;;;;;;;18.25;41.30;102581.16;5051402;28;20045;-82
2021/12/16 10:09:40;;;;;;;10.35;7.63;;;;;;;18.27;41.39;102583.75;5051901;28;20373;-80
2021/12/16 10:12:14;;;;;;;10.70;7.90;;;;;;;18.27;41.29;102573.91;5051801;28;20064;-81
2021/12/16 10:15:07;;;;;;;13.00;8.25;;;;;;;18.27;41.34;102568.56;5051271;28;20049;-79
2021/12/16 10:17:40;;;;;;;9.95;7.90;;;;;;;18.28;41.47;102569.41;5053258;28;20064;-78
2021/12/16 10:20:20;;;;;;;9.20;8.32;;;;;;;18.29;41.58;102561.28;5052676;28;20056;-81
2021/12/16 10:23:15;;;;;;;7.80;7.00;;;;;;;18.28;41.58;102564.91;5051461;28;20056;-80
2021/12/16 10:26:04;;;;;;;8.50;7.43;;;;;;;18.29;41.44;102563.97;5052938;28;20041;-81
2021/12/16 10:28:35;;;;;;;8.82;7.30;;;;;;;18.29;41.65;102555.91;5047941;28;20052;-81
2021/12/16 10:31:20;;;;;;;8.23;7.05;;;;;;;18.31;41.76;102561.22;5052811;28;20496;-80
2021/12/16 10:34:04;;;;;;;8.70;7.70;;;;;;;18.31;41.85;102544.25;5052563;28;20053;-80
2021/12/16 10:36:45;;;;;;;9.57;8.00;;;;;;;18.30;41.62;102538.00;5052994;28;20049;-80
2021/12/16 10:39:19;;;;;;;9.35;7.38;;;;;;;18.32;41.62;102540.63;5051395;28;20060;-79
2021/12/16 10:41:52;;;;;;;9.68;7.72;;;;;;;18.31;41.77;102538.88;5052362;28;20060;-80
2021/12/16 10:44:30;;;;;;;12.10;8.30;;;;;;;18.32;41.58;102537.94;5035035;28;20052;-79
2021/12/16 10:47:09;;;;;;;10.70;8.45;;;;;;;18.33;41.77;102540.53;5052243;28;20056;-79
2021/12/16 10:49:52;;;;;;;8.55;7.63;;;;;;;18.33;41.74;102534.31;5052631;28;20061;-81
2021/12/16 10:52:27;;;;;;;9.53;8.53;;;;;;;18.32;41.68;102532.59;5052800;28;20045;-81
2021/12/16 10:54:57;;;;;;;11.27;9.10;;;;;;;18.34;41.52;102533.34;5052327;28;20418;-80
2021/12/16 10:57:28;;;;;;;10.23;8.20;;;;;;;18.33;41.52;102532.50;5053806;28;20044;-81
2021/12/16 11:00:12;;;;;;;9.45;8.07;;;;;;;18.34;41.71;102533.34;5056678;28;20049;-80
2021/12/16 11:02:40;;;;;;;9.07;8.18;;;;;;;18.33;41.72;102535.19;5054994;28;20045;-81
2021/12/16 11:05:24;;;;;;;9.43;8.27;;;;;;;18.34;41.77;102528.00;5057149;28;20049;-81
2021/12/16 11:07:55;;;;;;;10.95;9.82;;;;;;;18.35;41.61;102533.28;5057005;28;20037;-81
2021/12/16 11:10:29;;;;;;;11.98;10.10;;;;;;;18.37;41.70;102535.88;5056907;28;20048;-81
2021/12/16 11:13:09;;;;;;;13.30;9.63;;;;;;;18.36;41.67;102523.44;5054912;28;20060;-80
2021/12/16 11:15:47;;;;;;;11.50;10.30;;;;;;;18.36;41.68;102518.94;5056586;28;20049;-80
2021/12/16 11:18:24;;;;;;;11.07;9.98;;;;;;;18.36;41.59;102523.44;5056007;28;20401;-81
2021/12/16 11:21:02;;;;;;;10.45;9.10;;;;;;;18.36;41.46;102513.56;5055482;28;20060;-81
2021/12/16 11:23:38;;;;;;;12.40;11.13;;;;;;;18.36;41.25;102516.25;5055915;28;20097;-76
2021/12/16 11:26:09;;;;;;;13.85;12.30;;;;;;;18.37;41.28;102525.16;5055729;28;20495;-77
2021/12/16 11:28:42;;;;;;;13.55;12.15;;;;;;;18.35;41.32;102529.72;5055665;28;20059;-77
2021/12/16 11:31:29;;;;;;;15.32;13.65;;;;;;;18.35;41.13;102527.03;5055948;28;20072;-76
2021/12/16 11:34:00;;;;;;;15.18;13.05;;;;;;;18.32;41.49;102520.03;5055440;28;20049;-76
2021/12/16 11:36:29;;;;;;;15.55;13.80;;;;;;;18.32;41.32;102514.69;5055215;28;20053;-76
2021/12/16 11:39:17;;;;;;;16.13;14.10;;;;;;;18.33;40.97;102515.53;5054916;28;20045;-77
2021/12/16 11:41:57;;;;;;;16.00;14.13;;;;;;;18.35;41.02;102516.31;5055196;28;20056;-77
2021/12/16 11:44:28;;;;;;;15.50;13.98;;;;;;;18.34;41.21;102519.94;5055609;28;20046;-76
2021/12/16 11:47:04;;;;;;;16.35;14.60;;;;;;;18.33;41.17;102512.88;5055181;28;20048;-77
2021/12/16 11:49:44;;;;;;;16.83;15.00;;;;;;;18.33;41.21;102512.88;5055552;28;20041;-77
2021/12/16 11:52:31;;;;;;;16.52;14.88;;;;;;;18.36;41.04;102507.34;5055028;28;20488;-76
2021/12/16 11:55:13;;;;;;;15.10;13.70;;;;;;;18.35;41.28;102506.47;5054745;28;20052;-75
2021/12/16 11:57:54;;;;;;;15.80;14.23;;;;;;;18.35;41.38;102502.91;5055008;28;20056;-76
2021/12/16 12:00:25;;;;;;;16.67;14.73;;;;;;;18.34;41.28;102514.59;5053405;28;20063;-76
2021/12/16 12:02:54;;;;;;;14.43;13.02;;;;;;;18.34;41.29;102509.22;5053210;28;20496;-76
2021/12/16 12:05:27;;;;;;;15.35;13.73;;;;;;;18.34;41.62;102506.53;5037373;28;20128;-76
2021/12/16 12:07:58;;;;;;;16.20;14.52;;;;;;;18.32;41.51;102506.63;5054819;28;20504;-75
2021/12/16 12:10:52;;;;;;;16.08;13.48;;;;;;;18.32;41.63;102508.47;5054667;28;20120;-75
2021/12/16 12:13:35;;;;;;;15.18;13.38;;;;;;;18.32;41.62;102501.28;5054521;28;20049;-75
2021/12/16 12:16:06;;;;;;;14.60;12.70;;;;;;;18.34;41.46;102503.88;5054898;28;20045;-76
2021/12/16 12:18:36;;;;;;;13.98;12.50;;;;;;;18.35;41.50;102500.22;5054723;28;20365;-76
2021/12/16 12:21:20;;;;;;;12.90;11.60;;;;;;;18.35;41.37;102489.50;5054434;28;20045;-76
2021/12/16 12:23:50;;;;;;;12.35;10.95;;;;;;;18.34;41.33;102485.97;5054986;28;20045;-76
2021/12/16 12:26:20;;;;;;;13.98;11.60;;;;;;;18.35;41.44;102484.13;5053208;28;20053;-75
2021/12/16 12:28:51;;;;;;;14.30;12.90;;;;;;;18.36;41.46;102483.22;5054257;28;20045;-76
2021/12/16 12:31:22;;;;;;;14.50;12.35;;;;;;;18.36;41.67;102483.22;5053474;28;20057;-75
2021/12/16 12:33:49;;;;;;;14.57;13.07;;;;;;;18.36;42.57;102483.22;5054480;28;20049;-75
2021/12/16 12:36:19;;;;;;;13.70;12.40;;;;;;;18.37;44.22;102491.16;5054053;28;20059;-75
2021/12/16 12:38:46;;;;;;;16.55;15.00;;;;;;;18.37;46.31;102487.63;5054040;28;20037;-76
2021/12/16 12:41:15;;;;;;;16.45;14.85;;;;;;;18.36;47.38;102488.56;5052819;28;20049;-75
2021/12/16 12:43:44;;;;;;;18.60;16.70;;;;;;;18.35;47.99;102476.09;5053682;28;20053;-76
2021/12/16 12:46:18;;;;;;;16.52;14.93;;;;;;;18.33;48.31;102470.81;5054169;28;20509;-75
2021/12/16 12:48:47;;;;;;;15.75;14.23;;;;;;;18.33;48.32;102464.59;5053866;28;20048;-75
2021/12/16 12:51:16;;;;;;;15.90;14.30;;;;;;;18.33;48.47;102469.97;5053749;28;20052;-76
2021/12/16 12:53:49;;;;;;;15.73;14.18;;;;;;;18.33;47.88;102472.66;5053661;28;20048;-75
2021/12/16 12:56:28;;;;;;;15.13;12.40;;;;;;;18.33;46.41;102469.97;5052557;28;20052;-76
2021/12/16 12:58:58;;;;;;;14.68;13.25;;;;;;;18.34;46.29;102458.28;5053428;28;20055;-78
2021/12/16 13:01:34;;;;;;;14.23;12.35;;;;;;;18.34;45.24;102456.47;5053937;28;20504;-76
2021/12/16 13:04:09;;;;;;;13.57;12.20;;;;;;;18.35;45.29;102457.31;5052612;28;20052;-75
2021/12/16 13:07:04;;;;;;;13.25;11.88;;;;;;;18.36;45.35;102464.44;5052056;28;20063;-76
2021/12/16 13:09:47;;;;;;;12.65;11.45;;;;;;;18.37;44.54;102460.81;5049708;28;20068;-75
2021/12/16 13:15:37;;;;;;;14.70;11.45;;;;;;;18.38;44.19;102470.56;5051241;28;20568;-75
2021/12/16 13:26:37;;;;;;;60.25;54.13;;;;;;;17.32;40.81;102468.19;5051781;28;20061;-75
2021/12/16 13:29:35;;;;;;;63.78;57.15;;;;;;;16.97;40.58;102460.13;5050973;28;20523;-76
2021/12/16 13:32:18;;;;;;;39.38;35.33;;;;;;;17.06;43.41;102458.81;5051330;28;20049;-75
2021/12/16 13:35:32;;;;;;;29.95;26.88;;;;;;;17.24;44.54;102459.69;5051404;28;20057;-76
2021/12/16 13:38:15;;;;;;;28.20;25.23;;;;;;;17.42;44.25;102466.78;5034007;28;20065;-75
2021/12/16 13:40:43;;;;;;;25.83;22.85;;;;;;;17.54;44.22;102454.53;5051493;28;20061;-76
2021/12/16 13:43:22;;;;;;;23.95;20.08;;;;;;;17.64;44.45;102461.13;5050896;28;20057;-75
2021/12/16 14:03:41;;;;;;;18.52;15.57;;;;;;;17.99;43.77;102469.16;5053532;28;20045;-74
2021/12/16 14:06:37;;;;;;;16.85;15.05;;;;;;;18.00;43.53;102473.56;5037011;28;20053;-75
2021/12/16 14:09:17;;;;;;;17.80;15.88;;;;;;;18.00;43.61;102469.06;5085589;28;20044;-75
2021/12/16 14:23:37;;;;;;;15.63;14.07;;;;;;;18.05;43.18;102463.44;5084913;28;20053;-75
2021/12/16 14:27:17;;;;;;;14.77;13.27;;;;;;;18.05;43.19;102466.13;5052799;28;20511;-75
2021/12/16 14:45:13;;;;;;;16.00;14.27;;;;;;;18.08;42.87;102487.41;5057181;28;20056;-76
2021/12/16 14:50:18;;;;;;;15.10;13.50;;;;;;;18.08;42.87;102492.75;5056647;28;20052;-76
2021/12/16 14:52:46;;;;;;;15.65;14.05;;;;;;;18.08;42.86;102492.75;5055184;28;20053;-76
2021/12/16 14:55:18;;;;;;;14.80;13.25;;;;;;;18.07;42.74;102490.16;5055968;28;20044;-76
2021/12/16 14:57:50;;;;;;;13.88;12.55;;;;;;;18.08;42.93;102497.25;5088860;28;20049;-76
2021/12/16 15:00:28;;;;;;;14.45;12.95;;;;;;;18.08;42.77;102499.94;5056673;28;20048;-76
2021/12/16 15:03:10;;;;;;;14.02;12.68;;;;;;;18.08;42.92;102502.63;5055620;28;20485;-76
2021/12/16 15:05:53;;;;;;;14.57;13.15;;;;;;;18.08;42.76;102510.66;5055620;28;20385;-76
2021/12/16 15:39:57;;;;;;;14.15;12.50;;;;;;;18.08;42.48;102535.66;4974390;28;20059;-76
2021/12/16 15:42:50;;;;;;;15.57;13.07;;;;;;;18.08;42.52;102534.78;4974365;28;20434;-76
2021/12/16 15:45:39;;;;;;;14.98;13.48;;;;;;;18.08;42.23;102542.81;4957526;28;20054;-76